»·PEaware :: WAT633 KPRC-KSFO

WAT633 :: KPRC-KSFO

FLIGHT INFORMATION

Flight Status: Arrived
Operator:
Walker Air Transport
More flights by this operator :: More flights under this callsign
Pilot: Michael F. (9548)
Aircraft: BEECH AIRCRAFT SUPER KING AIR 350
(B350)
More flights by this aircraft type
Origin: KPRC Love
United States
Destination: KSFO San Francisco Intl
United States
More flights between these airports :: More routes between these airports
Route: INYOE MOD9
File this flight plan on PilotEdge
Remarks:
Altitude:
(Current/Filed)
26,000ft
Speed:
(Current/Filed)
250kts
Departed: 14-Jan-22 10:33 AM
Arrived: 14-Jan-22 12:44 PM
Distance/Time
Traveled:
514nm/2:11
Distance/Time
To Go:
Arrived

Flight Plot

Page will automatically refresh every two minutes.

Flight plan parsing failed; only flown route is shown


Map Options




Map Legend


Flown Route
Filed Route
Departure Airport
Arrival Airport
Navaid (VOR, NDB)
Fix

Horizontal Profiles

Position Reports

Time Latitude Longitude Heading Altitude Ground
Speed
14-Jan-22 10:18 34.646714 -112.424192 308 5046ft 0kts
14-Jan-22 10:19 34.646714 -112.424192 308 5046ft 0kts
14-Jan-22 10:20 34.646714 -112.424192 308 5046ft 0kts
14-Jan-22 10:21 34.646714 -112.424192 308 5046ft 0kts
14-Jan-22 10:22 34.646714 -112.424192 308 5046ft 0kts
14-Jan-22 10:23 34.646714 -112.424192 308 5046ft 0kts
14-Jan-22 10:24 34.646714 -112.424192 308 5046ft 0kts
14-Jan-22 10:25 34.646714 -112.424192 308 5046ft 0kts
14-Jan-22 10:26 34.646714 -112.424192 308 5046ft 0kts
14-Jan-22 10:27 34.646714 -112.424192 308 5046ft 0kts
14-Jan-22 10:28 34.647057 -112.424978 306 5046ft 11kts
14-Jan-22 10:29 34.648163 -112.423761 128 5046ft 7kts
14-Jan-22 10:30 34.646183 -112.421371 135 5046ft 18kts
14-Jan-22 10:31 34.643696 -112.418424 91 5046ft 0kts
14-Jan-22 10:32 34.658275 -112.435598 318 5371ft 140kts
14-Jan-22 10:33 34.697967 -112.466304 331 7331ft 158kts
14-Jan-22 10:34 34.737678 -112.492778 331 8955ft 186kts
14-Jan-22 10:35 34.780857 -112.532713 285 10145ft 213kts
14-Jan-22 10:36 34.794230 -112.607777 280 11293ft 225kts
14-Jan-22 10:37 34.810573 -112.668096 298 14034ft 162kts
14-Jan-22 10:38 34.838559 -112.722807 303 14934ft 214kts
14-Jan-22 10:39 34.874451 -112.787821 304 15737ft 245kts
14-Jan-22 10:40 34.907024 -112.846442 304 16427ft 247kts
14-Jan-22 10:41 34.942153 -112.909753 305 18357ft 206kts
14-Jan-22 10:42 34.971729 -112.963077 305 20165ft 182kts
14-Jan-22 10:43 34.999207 -113.012728 305 21612ft 172kts
14-Jan-22 10:44 35.024472 -113.058478 305 23008ft 152kts
14-Jan-22 10:45 35.046756 -113.098856 305 24406ft 138kts
14-Jan-22 10:46 35.067720 -113.136867 303 25832ft 133kts
14-Jan-22 10:47 35.091056 -113.179262 303 26006ft 168kts
14-Jan-22 10:48 35.119306 -113.230622 303 26016ft 195kts
14-Jan-22 10:49 35.150920 -113.288188 303 26015ft 212kts
14-Jan-22 10:50 35.184543 -113.349527 303 26011ft 222kts
14-Jan-22 10:51 35.219207 -113.412885 303 26008ft 227kts
14-Jan-22 10:52 35.252756 -113.474297 303 26789ft 204kts
14-Jan-22 10:53 35.282873 -113.529549 302 27443ft 194kts
14-Jan-22 10:54 35.312901 -113.584713 302 27807ft 195kts
14-Jan-22 10:55 35.342912 -113.639925 302 28159ft 195kts
14-Jan-22 10:56 35.373004 -113.695385 301 28579ft 195kts
14-Jan-22 10:57 35.402844 -113.750458 301 29007ft 194kts
14-Jan-22 10:58 35.432544 -113.805363 300 29428ft 193kts
14-Jan-22 10:59 35.462077 -113.860047 300 29841ft 192kts
14-Jan-22 11:00 35.491426 -113.914471 299 30247ft 190kts
14-Jan-22 11:01 35.518855 -113.965422 299 30623ft 189kts
14-Jan-22 11:02 35.541701 -114.007917 299 30933ft 188kts
14-Jan-22 11:03 35.570266 -114.061126 298 31316ft 186kts
14-Jan-22 11:04 35.602864 -114.121987 300 30294ft 229kts
14-Jan-22 11:05 35.637798 -114.187244 300 30287ft 227kts
14-Jan-22 11:06 35.672432 -114.252104 300 30287ft 227kts
14-Jan-22 11:07 35.707181 -114.317317 300 30039ft 236kts
14-Jan-22 11:08 35.744092 -114.386709 301 29434ft 247kts
14-Jan-22 11:09 35.782171 -114.458425 301 28799ft 254kts
14-Jan-22 11:10 35.821026 -114.531760 302 28145ft 257kts
14-Jan-22 11:11 35.860093 -114.605656 302 27480ft 258kts
14-Jan-22 11:12 35.899381 -114.680127 302 26842ft 260kts
14-Jan-22 11:13 35.938689 -114.754791 302 26247ft 261kts
14-Jan-22 11:15 35.978237 -114.830086 303 25639ft 262kts
14-Jan-22 11:16 36.015270 -114.907877 299 25019ft 263kts
14-Jan-22 11:17 36.049991 -114.987073 300 24385ft 262kts
14-Jan-22 11:18 36.080970 -115.057898 300 24324ft 249kts
14-Jan-22 11:19 36.113491 -115.132403 300 24338ft 244kts
14-Jan-22 11:20 36.145597 -115.206123 300 24332ft 244kts
14-Jan-22 11:21 36.177965 -115.280657 300 24329ft 247kts
14-Jan-22 11:22 36.210580 -115.355896 300 24329ft 250kts
14-Jan-22 11:23 36.243498 -115.432006 300 24327ft 251kts
14-Jan-22 11:24 36.276352 -115.508134 300 24341ft 251kts
14-Jan-22 11:25 36.309166 -115.584363 300 24361ft 250kts
14-Jan-22 11:26 36.341865 -115.660499 300 24388ft 250kts
14-Jan-22 11:27 36.374551 -115.736754 300 24397ft 251kts
14-Jan-22 11:28 36.407283 -115.813259 300 24395ft 252kts
14-Jan-22 11:29 36.440098 -115.890255 300 24394ft 252kts
14-Jan-22 11:30 36.472635 -115.966700 300 24396ft 253kts
14-Jan-22 11:31 36.499694 -116.030423 300 24396ft 263kts
14-Jan-22 11:32 36.534149 -116.111752 300 24392ft 268kts
14-Jan-22 11:33 36.569018 -116.194263 300 24390ft 270kts
14-Jan-22 11:34 36.603794 -116.276751 300 24389ft 270kts
14-Jan-22 11:35 36.638591 -116.359510 300 24388ft 270kts
14-Jan-22 11:36 36.673382 -116.442474 300 24386ft 270kts
14-Jan-22 11:36 36.702331 -116.511650 300 24386ft 270kts
14-Jan-22 11:38 36.742672 -116.608307 300 24384ft 270kts
14-Jan-22 11:38 36.771463 -116.677475 299 24394ft 270kts
14-Jan-22 11:40 36.820754 -116.764935 323 24448ft 268kts
14-Jan-22 11:41 36.883374 -116.816771 323 24414ft 271kts
14-Jan-22 11:42 36.945953 -116.869125 323 24447ft 270kts
14-Jan-22 11:42 36.997796 -116.912624 324 24461ft 271kts
14-Jan-22 11:43 37.060508 -116.965305 325 24460ft 272kts
14-Jan-22 11:45 37.134189 -117.027322 326 24470ft 275kts
14-Jan-22 11:46 37.197905 -117.081076 325 24469ft 277kts
14-Jan-22 11:46 37.251372 -117.126282 325 24467ft 279kts
14-Jan-22 11:47 37.315781 -117.180837 325 24467ft 280kts
14-Jan-22 11:48 37.380178 -117.235504 325 24465ft 280kts
14-Jan-22 11:50 37.459265 -117.285531 304 24467ft 279kts
14-Jan-22 11:50 37.506391 -117.332988 332 24456ft 278kts
14-Jan-22 11:51 37.571106 -117.386101 325 24461ft 279kts
14-Jan-22 11:52 37.634650 -117.442125 325 24462ft 279kts
14-Jan-22 11:53 37.678411 -117.516691 283 24506ft 288kts
14-Jan-22 11:54 37.694357 -117.615780 288 24461ft 288kts
14-Jan-22 11:55 37.712094 -117.714689 287 24459ft 289kts
14-Jan-22 11:56 37.729832 -117.813718 287 24449ft 290kts
14-Jan-22 11:57 37.747565 -117.913198 287 24446ft 290kts
14-Jan-22 11:58 37.765160 -118.012434 287 24446ft 290kts
14-Jan-22 11:59 37.782689 -118.111773 287 24444ft 290kts
14-Jan-22 12:00 37.800163 -118.211356 287 24443ft 290kts
14-Jan-22 12:01 37.817484 -118.310579 287 24443ft 290kts
14-Jan-22 12:02 37.834738 -118.409925 287 24448ft 289kts
14-Jan-22 12:03 37.851916 -118.509416 287 24455ft 289kts
14-Jan-22 12:04 37.868976 -118.608747 287 24458ft 289kts
14-Jan-22 12:05 37.885951 -118.708090 287 24463ft 289kts
14-Jan-22 12:06 37.890716 -118.809941 268 24476ft 301kts
14-Jan-22 12:07 37.878591 -118.915620 268 24464ft 305kts
14-Jan-22 12:08 37.866489 -119.022792 256 24448ft 311kts
14-Jan-22 12:09 37.853811 -119.131191 255 24472ft 315kts
14-Jan-22 12:10 37.840991 -119.241291 255 24472ft 316kts
14-Jan-22 12:11 37.828067 -119.351470 255 24467ft 317kts
14-Jan-22 12:12 37.815025 -119.461721 255 24464ft 317kts
14-Jan-22 12:13 37.801901 -119.571772 255 24435ft 318kts
14-Jan-22 12:14 37.788560 -119.682737 255 24350ft 319kts
14-Jan-22 12:15 37.775130 -119.793604 255 24264ft 320kts
14-Jan-22 12:16 37.761556 -119.904700 255 24135ft 321kts
14-Jan-22 12:17 37.747799 -120.016409 255 24017ft 322kts
14-Jan-22 12:18 37.733965 -120.127816 255 24024ft 320kts
14-Jan-22 12:19 37.719729 -120.241504 255 22845ft 332kts
14-Jan-22 12:20 37.705216 -120.356468 255 21361ft 333kts
14-Jan-22 12:21 37.690501 -120.472100 256 19982ft 331kts
14-Jan-22 12:22 37.676590 -120.580737 255 20093ft 301kts
14-Jan-22 12:23 37.663387 -120.682851 255 20211ft 289kts
14-Jan-22 12:24 37.650470 -120.782131 254 20273ft 286kts
14-Jan-22 12:25 37.637401 -120.881847 255 20286ft 292kts
14-Jan-22 12:26 37.624223 -120.986130 256 20274ft 308kts
14-Jan-22 12:27 37.611457 -121.099148 266 18233ft 331kts
14-Jan-22 12:28 37.598640 -121.212552 265 16021ft 319kts
14-Jan-22 12:29 37.586241 -121.320916 265 13812ft 310kts
14-Jan-22 12:30 37.573890 -121.427767 264 11622ft 309kts
14-Jan-22 12:31 37.561721 -121.532089 264 11027ft 297kts
14-Jan-22 12:32 37.548361 -121.635838 253 11002ft 302kts
14-Jan-22 12:33 37.524265 -121.736078 255 9769ft 293kts
14-Jan-22 12:34 37.501216 -121.832259 255 8259ft 282kts
14-Jan-22 12:35 37.493902 -121.926462 277 6991ft 261kts
14-Jan-22 12:36 37.498880 -122.014264 276 6088ft 250kts
14-Jan-22 12:37 37.503647 -122.094674 282 4779ft 219kts
14-Jan-22 12:38 37.530367 -122.159150 298 3276ft 204kts
14-Jan-22 12:39 37.556727 -122.220995 298 1825ft 195kts
14-Jan-22 12:40 37.577524 -122.271476 300 1613ft 146kts
14-Jan-22 12:41 37.596945 -122.317628 300 771ft 148kts
14-Jan-22 12:42 37.613847 -122.357867 300 71ft 114kts
14-Jan-22 12:43 37.620335 -122.373509 300 18ft 0kts
14-Jan-22 12:44 37.623034 -122.379966 301 18ft 23kts
14-Jan-22 12:45 37.622608 -122.382708 189 18ft 0kts
14-Jan-22 12:46 37.623271 -122.385125 339 18ft 14kts
14-Jan-22 12:47 37.625727 -122.383808 7 18ft 15kts
14-Jan-22 12:48 37.627709 -122.384711 61 18ft 0kts
14-Jan-22 12:49 37.627709 -122.384711 61 18ft 0kts
14-Jan-22 12:50 37.627709 -122.384711 61 18ft 0kts

Navigation Log

Ident Type
Flight plan parsing failed, navigation log unavailable